createdAt,value
2023-04-07T00:00:06.784Z,6.93
2023-04-07T00:01:06.783Z,6.92
2023-04-07T00:02:06.762Z,6.89
2023-04-07T00:03:06.837Z,6.91
2023-04-07T00:04:06.890Z,6.89
2023-04-07T00:05:06.752Z,6.83
2023-04-07T00:06:06.690Z,6.88
2023-04-07T00:07:06.725Z,6.83
2023-04-07T00:08:06.703Z,6.88
2023-04-07T00:09:06.715Z,6.82
2023-04-07T00:10:06.650Z,6.78
2023-04-07T00:11:06.647Z,6.83
2023-04-07T00:12:06.622Z,6.79
2023-04-07T00:13:06.614Z,6.83
2023-04-07T00:14:06.638Z,6.75
2023-04-07T00:15:06.595Z,6.71
2023-04-07T00:16:06.644Z,6.78
2023-04-07T00:17:06.594Z,6.68
2023-04-07T00:18:06.581Z,6.71
2023-04-07T00:19:06.570Z,6.68
2023-04-07T00:20:06.543Z,6.75
2023-04-07T00:21:06.524Z,6.73
2023-04-07T00:22:06.533Z,6.64
2023-04-07T00:23:06.506Z,6.63
2023-04-07T00:24:06.518Z,6.61
2023-04-07T00:25:06.488Z,6.65
2023-04-07T00:26:06.471Z,6.70
2023-04-07T00:27:06.464Z,6.60
2023-04-07T00:28:06.448Z,6.60
2023-04-07T00:29:06.468Z,6.60
2023-04-07T00:30:06.465Z,6.61
2023-04-07T00:31:06.563Z,6.50
2023-04-07T00:32:06.436Z,6.53
2023-04-07T00:33:09.823Z,6.52
2023-04-07T00:34:06.381Z,6.42
2023-04-07T00:35:06.395Z,6.56
2023-04-07T00:36:06.434Z,6.49
2023-04-07T00:37:06.386Z,6.46
2023-04-07T00:38:06.356Z,6.40
2023-04-07T00:39:12.958Z,6.46
2023-04-07T00:40:06.314Z,6.45
2023-04-07T00:41:06.308Z,6.45
2023-04-07T00:42:06.324Z,6.38
2023-04-07T00:43:06.283Z,6.45
2023-04-07T00:44:06.278Z,6.42
2023-04-07T00:45:06.262Z,6.47
2023-04-07T00:46:06.294Z,6.35
2023-04-07T00:47:06.277Z,6.35
2023-04-07T00:48:06.261Z,6.38
2023-04-07T00:49:06.248Z,6.24
2023-04-07T00:50:06.223Z,6.32
2023-04-07T00:51:06.200Z,6.38
2023-04-07T00:52:06.202Z,6.28
2023-04-07T00:53:06.206Z,6.34
2023-04-07T00:54:06.191Z,6.31
2023-04-07T00:55:06.153Z,6.24
2023-04-07T00:56:06.140Z,6.21
2023-04-07T00:57:06.137Z,6.24
2023-04-07T00:58:06.139Z,6.18
2023-04-07T00:59:06.145Z,6.30
2023-04-07T01:00:06.097Z,6.16
2023-04-07T01:01:06.090Z,6.15
2023-04-07T01:02:06.253Z,6.24
2023-04-07T01:03:06.395Z,6.19
2023-04-07T01:04:06.209Z,6.24
2023-04-07T01:05:06.172Z,6.12
2023-04-07T01:06:06.066Z,6.13
2023-04-07T01:07:06.024Z,6.11
2023-04-07T01:08:06.010Z,6.06
2023-04-07T01:09:06.003Z,6.09
2023-04-07T01:10:06.007Z,6.12
2023-04-07T01:11:06.010Z,6.05
2023-04-07T01:12:05.965Z,5.91
2023-04-07T01:13:05.957Z,5.93
2023-04-07T01:14:05.947Z,6.03
2023-04-07T01:15:05.947Z,5.97
2023-04-07T01:16:05.992Z,5.97
2023-04-07T01:17:05.919Z,6.00
2023-04-07T01:18:05.932Z,5.94
2023-04-07T01:19:05.900Z,5.87
2023-04-07T01:20:05.903Z,5.84
2023-04-07T01:21:05.894Z,5.90
2023-04-07T01:22:05.865Z,5.85
2023-04-07T01:23:05.857Z,5.85
2023-04-07T01:24:05.834Z,5.80
2023-04-07T01:25:05.865Z,5.77
2023-04-07T01:26:05.811Z,5.80
2023-04-07T01:27:05.807Z,5.77
2023-04-07T01:28:05.802Z,5.85
2023-04-07T01:29:05.790Z,5.79
2023-04-07T01:30:05.771Z,5.73
2023-04-07T01:31:05.789Z,5.76
2023-04-07T01:32:05.820Z,5.77
2023-04-07T01:33:05.805Z,5.67
2023-04-07T01:34:05.728Z,5.70
2023-04-07T01:35:05.716Z,5.69
2023-04-07T01:36:05.737Z,5.66
2023-04-07T01:37:05.739Z,5.67
2023-04-07T01:38:05.688Z,5.59
2023-04-07T01:39:05.688Z,5.57
2023-04-07T01:40:05.671Z,5.59
2023-04-07T01:41:05.685Z,5.66
2023-04-07T01:42:05.649Z,5.61
2023-04-07T01:43:05.637Z,5.55
2023-04-07T01:44:05.621Z,5.67
2023-04-07T01:45:05.617Z,5.54
2023-04-07T01:46:05.667Z,5.54
2023-04-07T01:47:05.630Z,5.57
2023-04-07T01:48:05.606Z,5.50
2023-04-07T01:49:05.608Z,5.55
2023-04-07T01:50:05.567Z,5.52
2023-04-07T01:51:05.552Z,5.43
2023-04-07T01:52:05.576Z,5.52
2023-04-07T01:53:05.557Z,5.48
2023-04-07T01:54:05.538Z,5.44
2023-04-07T01:55:05.511Z,5.48
2023-04-07T01:56:05.522Z,5.34
2023-04-07T01:57:05.488Z,5.40
2023-04-07T01:58:05.469Z,5.43
2023-04-07T01:59:05.468Z,5.33
2023-04-07T02:00:05.455Z,5.39
2023-04-07T02:01:05.509Z,5.30
2023-04-07T02:02:05.508Z,5.44
2023-04-07T02:03:05.613Z,5.30
2023-04-07T02:04:05.479Z,5.33
2023-04-07T02:05:05.465Z,5.39
2023-04-07T02:06:05.452Z,5.34
2023-04-07T02:07:05.385Z,5.32
2023-04-07T02:08:05.365Z,5.30
2023-04-07T02:09:05.385Z,5.24
2023-04-07T02:10:05.368Z,5.30
2023-04-07T02:11:05.385Z,5.24
2023-04-07T02:12:05.350Z,5.25
2023-04-07T02:13:05.318Z,5.24
2023-04-07T02:14:05.300Z,5.22
2023-04-07T02:15:05.298Z,5.25
2023-04-07T02:16:05.305Z,5.18
2023-04-07T02:17:05.294Z,5.19
2023-04-07T02:18:05.293Z,5.22
2023-04-07T02:19:05.247Z,5.22
2023-04-07T02:20:05.230Z,5.18
2023-04-07T02:21:05.227Z,5.21
2023-04-07T02:22:05.259Z,5.19
2023-04-07T02:23:05.233Z,5.12
2023-04-07T02:24:05.208Z,5.15
2023-04-07T02:25:05.202Z,5.14
2023-04-07T02:26:05.182Z,5.09
2023-04-07T02:27:05.186Z,5.06
2023-04-07T02:28:05.144Z,5.04
2023-04-07T02:29:05.176Z,5.07
2023-04-07T02:30:05.128Z,5.06
2023-04-07T02:31:05.130Z,5.11
2023-04-07T02:32:05.236Z,5.00
2023-04-07T02:33:05.153Z,5.12
2023-04-07T02:34:05.121Z,4.97
2023-04-07T02:35:05.138Z,4.97
2023-04-07T02:36:05.057Z,4.97
2023-04-07T02:37:05.101Z,4.97
2023-04-07T02:38:05.072Z,4.91
2023-04-07T02:39:05.029Z,4.98
2023-04-07T02:40:05.027Z,4.93
2023-04-07T02:41:05.049Z,4.98
2023-04-07T02:42:04.996Z,4.97
2023-04-07T02:43:05.068Z,4.98
2023-04-07T02:44:04.986Z,4.89
2023-04-07T02:45:04.960Z,4.91
2023-04-07T02:46:04.990Z,4.93
2023-04-07T02:47:04.975Z,4.82
2023-04-07T02:48:04.948Z,4.89
2023-04-07T02:49:04.931Z,4.88
2023-04-07T02:50:04.909Z,4.75
2023-04-07T02:51:04.897Z,4.79
2023-04-07T02:52:04.888Z,4.79
2023-04-07T02:53:04.920Z,4.83
2023-04-07T02:54:04.862Z,4.77
2023-04-07T02:55:04.858Z,4.77
2023-04-07T02:56:04.844Z,4.77
2023-04-07T02:57:04.866Z,4.79
2023-04-07T02:58:04.813Z,4.72
2023-04-07T02:59:04.838Z,4.74
2023-04-07T03:00:04.809Z,4.77
2023-04-07T03:01:04.854Z,4.78
2023-04-07T03:02:05.033Z,4.77
2023-04-07T03:03:04.892Z,4.67
2023-04-07T03:04:04.880Z,4.66
2023-04-07T03:05:04.750Z,4.69
2023-04-07T03:06:04.755Z,4.69
2023-04-07T03:07:04.759Z,4.79
2023-04-07T03:08:04.708Z,4.69
2023-04-07T03:09:04.734Z,4.75
2023-04-07T03:10:04.685Z,4.74
2023-04-07T03:11:04.682Z,4.66
2023-04-07T03:12:04.695Z,4.67
2023-04-07T03:13:04.690Z,4.59
2023-04-07T03:14:04.678Z,4.67
2023-04-07T03:15:04.630Z,4.64
2023-04-07T03:16:04.634Z,4.60
2023-04-07T03:17:04.656Z,4.64
2023-04-07T03:18:04.661Z,4.60
2023-04-07T03:19:04.659Z,4.61
2023-04-07T03:20:04.587Z,4.66
2023-04-07T03:21:04.573Z,4.54
2023-04-07T03:22:04.557Z,4.54
2023-04-07T03:23:04.546Z,4.64
2023-04-07T03:24:04.593Z,4.56
2023-04-07T03:25:04.554Z,4.59
2023-04-07T03:26:04.520Z,4.54
2023-04-07T03:27:04.525Z,4.57
2023-04-07T03:28:04.495Z,4.54
2023-04-07T03:29:04.525Z,4.46
2023-04-07T03:30:04.481Z,4.53
2023-04-07T03:31:04.518Z,4.54
2023-04-07T03:32:04.493Z,4.49
2023-04-07T03:33:04.456Z,4.45
2023-04-07T03:34:04.447Z,4.53
2023-04-07T03:35:04.422Z,4.42
2023-04-07T03:36:04.449Z,4.49
2023-04-07T03:37:04.418Z,4.43
2023-04-07T03:38:04.388Z,4.46
2023-04-07T03:39:04.392Z,4.43
2023-04-07T03:40:04.368Z,4.39
2023-04-07T03:41:04.384Z,4.48
2023-04-07T03:42:04.346Z,4.39
2023-04-07T03:43:04.346Z,4.43
2023-04-07T03:44:04.368Z,4.41
2023-04-07T03:45:04.326Z,4.42
2023-04-07T03:46:04.369Z,4.42
2023-04-07T03:47:04.290Z,4.30
2023-04-07T03:48:04.361Z,4.39
2023-04-07T03:49:04.281Z,4.28
2023-04-07T03:50:04.290Z,4.31
2023-04-07T03:51:04.242Z,4.41
2023-04-07T03:52:04.257Z,4.36
2023-04-07T03:53:04.239Z,4.38
2023-04-07T03:54:04.212Z,4.31
2023-04-07T03:55:04.199Z,4.34
2023-04-07T03:56:04.195Z,4.38
2023-04-07T03:57:04.224Z,4.34
2023-04-07T03:58:04.167Z,4.34
2023-04-07T03:59:04.162Z,4.30
2023-04-07T04:00:04.165Z,4.31
2023-04-07T04:01:04.167Z,4.30
2023-04-07T04:02:04.216Z,4.30
2023-04-07T04:03:04.247Z,4.39
2023-04-07T04:04:04.340Z,4.27
2023-04-07T04:05:04.169Z,4.28
2023-04-07T04:06:04.087Z,4.30
2023-04-07T04:07:04.084Z,4.27
2023-04-07T04:08:04.086Z,4.20
2023-04-07T04:09:04.051Z,4.24
2023-04-07T04:10:04.044Z,4.36
2023-04-07T04:11:04.050Z,4.24
2023-04-07T04:12:04.052Z,4.21
2023-04-07T04:13:04.042Z,4.31
2023-04-07T04:14:03.991Z,4.26
2023-04-07T04:15:03.979Z,4.24
2023-04-07T04:16:04.122Z,4.27
2023-04-07T04:17:05.459Z,4.26
2023-04-07T04:18:03.996Z,4.26
2023-04-07T04:19:03.940Z,4.26
2023-04-07T04:20:03.953Z,4.23
2023-04-07T04:21:03.947Z,4.30
2023-04-07T04:22:03.936Z,4.23
2023-04-07T04:23:03.912Z,4.28
2023-04-07T04:24:03.901Z,4.27
2023-04-07T04:25:03.880Z,4.24
2023-04-07T04:26:03.969Z,4.21
2023-04-07T04:27:03.892Z,4.26
2023-04-07T04:28:03.846Z,4.24
2023-04-07T04:29:03.840Z,4.24
2023-04-07T04:30:03.841Z,4.24
2023-04-07T04:31:04.002Z,4.21
2023-04-07T04:32:03.836Z,4.26
2023-04-07T04:33:03.866Z,4.24
2023-04-07T04:34:03.824Z,4.20
2023-04-07T04:35:03.827Z,4.20
2023-04-07T04:36:03.782Z,4.20
2023-04-07T04:37:03.843Z,4.23
2023-04-07T04:38:03.740Z,4.18
2023-04-07T04:39:03.723Z,4.24
2023-04-07T04:40:03.747Z,4.16
2023-04-07T04:41:03.707Z,4.18
2023-04-07T04:42:03.700Z,4.17
2023-04-07T04:43:03.675Z,4.20
2023-04-07T04:44:03.680Z,4.21
2023-04-07T04:45:03.669Z,4.24
2023-04-07T04:46:03.696Z,4.18
2023-04-07T04:47:03.693Z,4.20
2023-04-07T04:48:03.721Z,4.20
2023-04-07T04:49:03.640Z,4.17
2023-04-07T04:50:03.609Z,4.24
2023-04-07T04:51:03.648Z,4.21
2023-04-07T04:52:03.621Z,4.17
2023-04-07T04:53:03.573Z,4.20
2023-04-07T04:54:03.563Z,4.20
2023-04-07T04:55:03.553Z,4.20
2023-04-07T04:56:03.541Z,4.18
2023-04-07T04:57:03.568Z,4.23
2023-04-07T04:58:03.520Z,4.24
2023-04-07T04:59:03.506Z,4.23
2023-04-07T05:00:03.501Z,4.20
2023-04-07T05:01:03.507Z,4.20
2023-04-07T05:02:03.584Z,4.24
2023-04-07T05:03:03.710Z,4.21
2023-04-07T05:04:03.719Z,4.24
2023-04-07T05:05:03.738Z,4.21
2023-04-07T05:06:03.437Z,4.21
2023-04-07T05:07:03.434Z,4.17
2023-04-07T05:08:03.439Z,4.18
2023-04-07T05:09:03.400Z,4.16
2023-04-07T05:10:03.394Z,4.21
2023-04-07T05:11:03.420Z,4.23
2023-04-07T05:12:03.367Z,4.21
2023-04-07T05:13:03.375Z,4.17
2023-04-07T05:14:03.359Z,4.26
2023-04-07T05:15:03.332Z,4.20
2023-04-07T05:16:03.380Z,4.21
2023-04-07T05:17:03.345Z,4.21
2023-04-07T05:18:03.349Z,4.20
2023-04-07T05:19:03.294Z,4.20
2023-04-07T05:20:03.285Z,4.24
2023-04-07T05:21:03.289Z,4.23
2023-04-07T05:22:03.263Z,4.18
2023-04-07T05:23:03.304Z,4.21
2023-04-07T05:24:03.244Z,4.21
2023-04-07T05:25:03.235Z,4.24
2023-04-07T05:26:03.217Z,4.23
2023-04-07T05:27:03.252Z,4.21
2023-04-07T05:28:03.241Z,4.27
2023-04-07T05:29:03.207Z,4.23
2023-04-07T05:30:03.185Z,4.21
2023-04-07T05:31:04.566Z,4.21
2023-04-07T05:32:03.273Z,4.24
2023-04-07T05:33:03.256Z,4.24
2023-04-07T05:34:03.132Z,4.24
2023-04-07T05:35:03.140Z,4.27
2023-04-07T05:36:03.273Z,4.23
2023-04-07T05:37:03.118Z,4.30
2023-04-07T05:38:03.115Z,4.35
2023-04-07T05:39:03.077Z,4.31
2023-04-07T05:40:03.071Z,4.30
2023-04-07T05:41:03.090Z,4.23
2023-04-07T05:42:03.083Z,4.28
2023-04-07T05:43:03.031Z,4.34
2023-04-07T05:44:03.089Z,4.34
2023-04-07T05:45:03.041Z,4.34
2023-04-07T05:46:03.067Z,4.34
2023-04-07T05:47:03.041Z,4.31
2023-04-07T05:48:03.046Z,4.34
2023-04-07T05:49:18.412Z,4.41
2023-04-07T05:50:03.960Z,4.43
2023-04-07T05:51:02.947Z,4.30
2023-04-07T05:52:02.958Z,4.36
2023-04-07T05:53:02.957Z,4.39
2023-04-07T05:54:02.979Z,4.42
2023-04-07T05:55:02.901Z,4.38
2023-04-07T05:56:02.894Z,4.39
2023-04-07T05:57:02.880Z,4.48
2023-04-07T05:58:02.879Z,4.45
2023-04-07T05:59:02.882Z,4.53
2023-04-07T06:00:02.901Z,4.48
2023-04-07T06:01:02.839Z,4.45
2023-04-07T06:02:02.899Z,4.53
2023-04-07T06:03:03.047Z,4.53
2023-04-07T06:04:02.819Z,4.54
2023-04-07T06:05:02.888Z,4.53
2023-04-07T06:06:02.789Z,4.56
2023-04-07T06:07:02.774Z,4.54
2023-04-07T06:08:02.815Z,4.53
2023-04-07T06:09:02.775Z,4.61
2023-04-07T06:10:02.757Z,4.63
2023-04-07T06:11:02.794Z,4.63
2023-04-07T06:12:02.738Z,4.66
2023-04-07T06:13:02.754Z,4.64
2023-04-07T06:14:02.701Z,4.66
2023-04-07T06:15:02.704Z,4.72
2023-04-07T06:16:02.682Z,4.72
2023-04-07T06:17:02.884Z,4.77
2023-04-07T06:18:02.782Z,4.77
2023-04-07T06:19:02.694Z,4.71
2023-04-07T06:20:02.637Z,4.75
2023-04-07T06:21:02.621Z,4.74
2023-04-07T06:22:02.643Z,4.75
2023-04-07T06:23:02.624Z,4.77
2023-04-07T06:24:02.600Z,4.79
2023-04-07T06:25:02.624Z,4.78
2023-04-07T06:26:02.569Z,4.86
2023-04-07T06:27:02.610Z,4.75
2023-04-07T06:28:02.559Z,4.91
2023-04-07T06:29:02.567Z,4.96
2023-04-07T06:30:02.528Z,4.86
2023-04-07T06:31:02.553Z,4.98
2023-04-07T06:32:02.580Z,4.91
2023-04-07T06:33:02.547Z,4.96
2023-04-07T06:34:02.492Z,4.97
2023-04-07T06:35:02.469Z,4.97
2023-04-07T06:36:02.464Z,4.93
2023-04-07T06:37:02.566Z,4.98
2023-04-07T06:38:02.472Z,4.98
2023-04-07T06:39:02.426Z,5.11
2023-04-07T06:40:02.430Z,4.98
2023-04-07T06:41:02.421Z,5.04
2023-04-07T06:42:02.422Z,5.07
2023-04-07T06:43:02.399Z,5.07
2023-04-07T06:44:02.399Z,5.04
2023-04-07T06:45:02.377Z,5.15
2023-04-07T06:46:02.366Z,5.09
2023-04-07T06:47:02.346Z,5.12
2023-04-07T06:48:02.377Z,5.12
2023-04-07T06:49:02.331Z,5.19
2023-04-07T06:50:02.363Z,5.22
2023-04-07T06:51:02.298Z,5.25
2023-04-07T06:52:02.342Z,5.29
2023-04-07T06:53:02.271Z,5.27
2023-04-07T06:54:02.265Z,5.22
2023-04-07T06:55:02.299Z,5.29
2023-04-07T06:56:02.271Z,5.34
2023-04-07T06:57:02.258Z,5.34
2023-04-07T06:58:02.283Z,5.29
2023-04-07T06:59:02.205Z,5.41
2023-04-07T07:00:02.205Z,5.34
2023-04-07T07:01:02.206Z,5.33
2023-04-07T07:02:02.312Z,5.41
2023-04-07T07:03:02.321Z,5.37
2023-04-07T07:04:02.264Z,5.52
2023-04-07T07:05:02.421Z,5.50
2023-04-07T07:06:02.131Z,5.41
2023-04-07T07:07:02.141Z,5.51
2023-04-07T07:08:02.167Z,5.48
2023-04-07T07:09:02.099Z,5.58
2023-04-07T07:10:02.183Z,5.55
2023-04-07T07:11:02.090Z,5.54
2023-04-07T07:12:04.054Z,5.62
2023-04-07T07:13:02.077Z,5.67
2023-04-07T07:14:02.057Z,5.58
2023-04-07T07:15:02.209Z,5.67
2023-04-07T07:16:02.090Z,5.66
2023-04-07T07:17:02.013Z,5.70
2023-04-07T07:18:02.142Z,5.72
2023-04-07T07:19:01.983Z,5.70
2023-04-07T07:20:02.075Z,5.73
2023-04-07T07:21:01.996Z,5.75
2023-04-07T07:22:01.961Z,5.73
2023-04-07T07:23:01.975Z,5.84
2023-04-07T07:24:01.987Z,5.84
2023-04-07T07:25:01.947Z,5.80
2023-04-07T07:26:01.925Z,5.82
2023-04-07T07:27:01.905Z,5.82
2023-04-07T07:28:01.928Z,5.88
2023-04-07T07:29:01.932Z,5.85
2023-04-07T07:30:01.875Z,5.94
2023-04-07T07:31:01.864Z,5.97
2023-04-07T07:32:01.860Z,5.94
2023-04-07T07:33:01.903Z,5.97
2023-04-07T07:34:01.862Z,6.06
2023-04-07T07:35:01.842Z,6.13
2023-04-07T07:36:01.861Z,6.12
2023-04-07T07:37:01.803Z,6.16
2023-04-07T07:38:01.894Z,6.19
2023-04-07T07:39:01.791Z,6.16
2023-04-07T07:40:01.792Z,6.13
2023-04-07T07:41:01.766Z,6.16
2023-04-07T07:42:01.741Z,6.27
2023-04-07T07:43:01.763Z,6.31
2023-04-07T07:44:01.721Z,6.31
2023-04-07T07:45:01.751Z,6.37
2023-04-07T07:46:01.767Z,6.31
2023-04-07T07:47:01.704Z,6.38
2023-04-07T07:48:01.724Z,6.32
2023-04-07T07:49:01.735Z,6.38
2023-04-07T07:50:01.651Z,6.40
2023-04-07T07:51:01.647Z,6.45
2023-04-07T07:52:01.639Z,6.47
2023-04-07T07:53:01.663Z,6.46
2023-04-07T07:54:01.620Z,6.53
2023-04-07T07:55:01.627Z,6.53
2023-04-07T07:56:01.588Z,6.56
2023-04-07T07:57:01.584Z,6.63
2023-04-07T07:58:01.625Z,6.61
2023-04-07T07:59:01.595Z,6.63
2023-04-07T08:00:01.547Z,6.50
2023-04-07T08:01:01.557Z,6.67
2023-04-07T08:02:01.595Z,6.64
2023-04-07T08:03:01.624Z,6.68
2023-04-07T08:04:01.640Z,6.65
2023-04-07T08:05:01.557Z,6.79
2023-04-07T08:06:01.479Z,6.79
2023-04-07T08:07:01.473Z,6.83
2023-04-07T08:08:01.471Z,6.88
2023-04-07T08:09:01.476Z,6.88
2023-04-07T08:10:01.446Z,6.85
2023-04-07T08:11:01.451Z,6.92
2023-04-07T08:12:01.461Z,6.93
2023-04-07T08:13:01.408Z,6.97
2023-04-07T08:14:01.395Z,6.93
2023-04-07T08:15:01.384Z,6.93
2023-04-07T08:16:01.423Z,7.04
2023-04-07T08:17:01.463Z,7.08
2023-04-07T08:18:01.369Z,7.11
2023-04-07T08:19:01.340Z,7.16
2023-04-07T08:20:01.340Z,7.16
2023-04-07T08:21:01.318Z,7.21
2023-04-07T08:22:01.352Z,7.19
2023-04-07T08:23:01.316Z,7.22
2023-04-07T08:24:01.329Z,7.29
2023-04-07T08:25:01.268Z,7.31
2023-04-07T08:26:01.267Z,7.33
2023-04-07T08:27:01.274Z,7.26
2023-04-07T08:28:01.242Z,7.39
2023-04-07T08:29:01.230Z,7.42
2023-04-07T08:30:01.209Z,7.46
2023-04-07T08:31:01.267Z,7.43
2023-04-07T08:32:01.312Z,7.39
2023-04-07T08:33:01.330Z,7.46
2023-04-07T08:34:01.163Z,7.52
2023-04-07T08:35:01.174Z,7.50
2023-04-07T08:36:01.217Z,7.60
2023-04-07T08:37:01.140Z,7.58
2023-04-07T08:38:01.152Z,7.68
2023-04-07T08:39:01.137Z,7.66
2023-04-07T08:40:01.109Z,7.64
2023-04-07T08:41:01.109Z,7.73
2023-04-07T08:42:01.072Z,7.71
2023-04-07T08:43:01.115Z,7.76
2023-04-07T08:44:01.052Z,7.73
2023-04-07T08:45:01.301Z,7.71
2023-04-07T08:46:01.045Z,7.78
2023-04-07T08:47:01.096Z,7.83
2023-04-07T08:48:01.085Z,7.80
2023-04-07T08:49:01.027Z,7.88
2023-04-07T08:50:01.016Z,7.84
2023-04-07T08:51:00.979Z,7.98
2023-04-07T08:52:00.966Z,7.94
2023-04-07T08:53:00.970Z,8.02
2023-04-07T08:54:00.976Z,7.98
2023-04-07T08:55:00.933Z,7.96
2023-04-07T08:56:00.922Z,7.92
2023-04-07T08:57:00.962Z,7.96
2023-04-07T08:58:02.237Z,8.05
2023-04-07T08:59:00.902Z,8.10
2023-04-07T09:00:00.905Z,8.10
2023-04-07T09:01:00.917Z,8.12
2023-04-07T09:02:00.968Z,8.13
2023-04-07T09:03:01.027Z,8.13
2023-04-07T09:04:00.907Z,8.10
2023-04-07T09:05:00.846Z,8.20
2023-04-07T09:06:00.837Z,8.16
2023-04-07T09:07:00.841Z,8.20
2023-04-07T09:08:00.793Z,8.26
2023-04-07T09:09:00.812Z,8.28
2023-04-07T09:10:00.770Z,8.35
2023-04-07T09:11:00.760Z,8.34
2023-04-07T09:12:00.754Z,8.34
2023-04-07T09:13:00.779Z,8.32
2023-04-07T09:14:00.720Z,8.32
2023-04-07T09:15:00.742Z,8.24
2023-04-07T09:16:00.724Z,8.38
2023-04-07T09:17:00.693Z,8.38
2023-04-07T09:18:00.772Z,8.41
2023-04-07T09:19:00.704Z,8.44
2023-04-07T09:20:00.737Z,8.35
2023-04-07T09:21:00.670Z,8.38
2023-04-07T09:22:00.640Z,8.44
2023-04-07T09:23:00.633Z,8.52
2023-04-07T09:24:00.619Z,8.50
2023-04-07T09:25:00.665Z,8.57
2023-04-07T09:26:00.598Z,8.53
2023-04-07T09:27:00.588Z,8.56
2023-04-07T09:28:00.637Z,8.59
2023-04-07T09:29:00.596Z,8.57
2023-04-07T09:30:00.561Z,8.56
2023-04-07T09:31:00.563Z,8.60
2023-04-07T09:32:00.603Z,8.62
2023-04-07T09:33:00.592Z,8.59
2023-04-07T09:34:00.518Z,8.60
2023-04-07T09:35:00.593Z,8.72
2023-04-07T09:36:00.526Z,8.63
2023-04-07T09:37:00.554Z,8.74
2023-04-07T09:38:00.508Z,8.68
2023-04-07T09:39:00.452Z,8.74
2023-04-07T09:40:00.462Z,8.74
2023-04-07T09:41:00.444Z,8.71
2023-04-07T09:42:00.419Z,8.70
2023-04-07T09:43:00.427Z,8.75
2023-04-07T09:44:00.441Z,8.70
2023-04-07T09:45:00.424Z,8.71
2023-04-07T09:46:00.417Z,8.77
2023-04-07T09:47:00.376Z,8.81
2023-04-07T09:48:00.400Z,8.83
2023-04-07T09:49:00.359Z,8.81
2023-04-07T09:50:00.344Z,8.83
2023-04-07T09:51:00.372Z,8.81
2023-04-07T09:52:00.317Z,8.83
2023-04-07T09:53:00.324Z,8.89
2023-04-07T09:54:00.318Z,8.88
2023-04-07T09:55:00.302Z,8.92
2023-04-07T09:56:00.265Z,8.83
2023-04-07T09:57:00.260Z,8.92
2023-04-07T09:58:00.244Z,8.93
2023-04-07T09:59:00.254Z,8.96
2023-04-07T10:00:00.220Z,8.98
2023-04-07T10:01:00.289Z,8.99
2023-04-07T10:02:00.490Z,8.95
2023-04-07T10:03:00.356Z,8.99
2023-04-07T10:04:00.287Z,8.99
2023-04-07T10:05:00.225Z,8.93
2023-04-07T10:06:00.180Z,9.06
2023-04-07T10:07:00.154Z,9.06
2023-04-07T10:08:00.160Z,9.04
2023-04-07T10:09:00.199Z,9.06
2023-04-07T10:10:00.152Z,9.01
2023-04-07T10:11:00.112Z,9.04
2023-04-07T10:12:00.153Z,9.01
2023-04-07T10:13:00.122Z,9.09
2023-04-07T10:14:00.109Z,9.15
2023-04-07T10:15:00.116Z,9.11
2023-04-07T10:16:00.048Z,9.14
2023-04-07T10:17:00.293Z,9.11
2023-04-07T10:18:00.146Z,9.12
2023-04-07T10:19:00.064Z,9.09
2023-04-07T10:20:00.035Z,9.14
2023-04-07T10:21:00.005Z,9.15
2023-04-07T10:22:00.053Z,9.14
2023-04-07T10:22:59.984Z,9.11
2023-04-07T10:24:00.002Z,9.16
2023-04-07T10:24:59.993Z,9.12
2023-04-07T10:25:59.946Z,9.22
2023-04-07T10:26:59.976Z,9.15
2023-04-07T10:27:59.923Z,9.15
2023-04-07T10:28:59.984Z,9.18
2023-04-07T10:29:59.902Z,9.19
2023-04-07T10:30:59.956Z,9.16
2023-04-07T10:31:59.887Z,9.19
2023-04-07T10:33:00.011Z,9.15
2023-04-07T10:33:59.907Z,9.29
2023-04-07T10:34:59.850Z,9.16
2023-04-07T10:35:59.945Z,9.19
2023-04-07T10:36:59.824Z,9.24
2023-04-07T10:37:59.855Z,9.34
2023-04-07T10:38:59.856Z,9.33
2023-04-07T10:39:59.791Z,9.27
2023-04-07T10:40:59.803Z,9.33
2023-04-07T10:41:59.776Z,9.27
2023-04-07T10:42:59.771Z,9.37
2023-04-07T10:43:59.785Z,9.23
2023-04-07T10:44:59.734Z,9.34
2023-04-07T10:45:59.973Z,9.24
2023-04-07T10:46:59.726Z,9.32
2023-04-07T10:47:59.737Z,9.34
2023-04-07T10:48:59.715Z,9.36
2023-04-07T10:49:59.679Z,9.34
2023-04-07T10:50:59.689Z,9.40
2023-04-07T10:51:59.656Z,9.37
2023-04-07T10:52:59.698Z,9.34
2023-04-07T10:53:59.662Z,9.44
2023-04-07T10:54:59.634Z,9.42
2023-04-07T10:55:59.616Z,9.41
2023-04-07T10:56:59.664Z,9.42
2023-04-07T10:57:59.635Z,9.40
2023-04-07T10:58:59.607Z,9.40
2023-04-07T10:59:59.579Z,9.41
2023-04-07T11:00:59.567Z,9.40
2023-04-07T11:01:59.660Z,9.45
2023-04-07T11:02:59.668Z,9.52
2023-04-07T11:03:59.645Z,9.42
2023-04-07T11:04:59.615Z,9.45
2023-04-07T11:05:59.503Z,9.48
2023-04-07T11:06:59.498Z,9.52
2023-04-07T11:07:59.489Z,9.52
2023-04-07T11:08:59.518Z,9.45
2023-04-07T11:09:59.487Z,9.47
2023-04-07T11:10:59.452Z,9.44
2023-04-07T11:11:59.436Z,9.52
2023-04-07T11:12:59.455Z,9.55
2023-04-07T11:13:59.453Z,9.54
2023-04-07T11:14:59.422Z,9.57
2023-04-07T11:15:59.423Z,9.60
2023-04-07T11:16:59.400Z,9.57
2023-04-07T11:17:59.471Z,9.57
2023-04-07T11:18:59.384Z,9.59
2023-04-07T11:19:59.354Z,9.62
2023-04-07T11:20:59.349Z,9.51
2023-04-07T11:21:59.327Z,9.57
2023-04-07T11:22:59.320Z,9.52
2023-04-07T11:23:59.331Z,9.55
2023-04-07T11:24:59.302Z,9.62
2023-04-07T11:25:59.291Z,9.63
2023-04-07T11:26:59.286Z,9.62
2023-04-07T11:27:59.285Z,9.65
2023-04-07T11:28:59.311Z,9.62
2023-04-07T11:29:59.254Z,9.70
2023-04-07T11:30:59.254Z,9.67
2023-04-07T11:31:59.219Z,9.67
2023-04-07T11:32:59.269Z,9.72
2023-04-07T11:33:59.328Z,9.62
2023-04-07T11:34:59.229Z,9.80
2023-04-07T11:35:59.273Z,9.69
2023-04-07T11:36:59.166Z,9.66
2023-04-07T11:37:59.152Z,9.73
2023-04-07T11:38:59.146Z,9.77
2023-04-07T11:39:59.182Z,9.75
2023-04-07T11:40:59.122Z,9.72
2023-04-07T11:41:59.112Z,9.70
2023-04-07T11:42:59.104Z,9.72
2023-04-07T11:43:59.082Z,9.69
2023-04-07T11:44:59.166Z,9.73
2023-04-07T11:45:59.065Z,9.69
2023-04-07T11:46:59.237Z,9.83
2023-04-07T11:47:59.085Z,9.77
2023-04-07T11:48:59.037Z,9.80
2023-04-07T11:49:59.049Z,9.67
2023-04-07T11:50:59.016Z,9.80
2023-04-07T11:51:59.015Z,9.78
2023-04-07T11:52:59.016Z,9.78
2023-04-07T11:53:58.977Z,9.83
2023-04-07T11:54:59.036Z,9.73
2023-04-07T11:55:58.969Z,9.73
2023-04-07T11:56:58.969Z,9.77
2023-04-07T11:57:58.942Z,9.73
2023-04-07T11:58:58.955Z,9.77
2023-04-07T11:59:58.947Z,9.77
2023-04-07T12:00:58.924Z,9.70
2023-04-07T12:01:58.983Z,9.78
2023-04-07T12:02:59.038Z,9.70
2023-04-07T12:03:59.386Z,9.72
2023-04-07T12:04:58.969Z,9.77
2023-04-07T12:05:58.887Z,9.75
2023-04-07T12:06:58.898Z,9.78
2023-04-07T12:07:58.847Z,9.78
2023-04-07T12:08:58.814Z,9.78
2023-04-07T12:09:58.810Z,9.77
2023-04-07T12:10:58.788Z,9.77
2023-04-07T12:11:58.807Z,9.72
2023-04-07T12:12:59.637Z,9.83
2023-04-07T12:13:58.778Z,9.78
2023-04-07T12:14:58.770Z,9.80
2023-04-07T12:15:58.750Z,9.77
2023-04-07T12:16:58.851Z,9.70
2023-04-07T12:17:58.803Z,9.73
2023-04-07T12:18:58.718Z,9.73
2023-04-07T12:19:58.702Z,9.73
2023-04-07T12:20:58.708Z,9.77
2023-04-07T12:21:58.677Z,9.77
2023-04-07T12:22:58.657Z,9.80
2023-04-07T12:23:58.675Z,9.72
2023-04-07T12:24:58.685Z,9.70
2023-04-07T12:25:58.633Z,9.81
2023-04-07T12:26:58.631Z,9.72
2023-04-07T12:27:58.606Z,9.77
2023-04-07T12:28:58.595Z,9.70
2023-04-07T12:29:58.607Z,9.66
2023-04-07T12:30:58.610Z,9.66
2023-04-07T12:31:58.672Z,9.67
2023-04-07T12:32:58.627Z,9.67
2023-04-07T12:33:58.582Z,9.70
2023-04-07T12:34:58.530Z,9.67
2023-04-07T12:35:58.565Z,9.67
2023-04-07T12:36:58.509Z,9.80
2023-04-07T12:37:58.508Z,9.75
2023-04-07T12:38:58.530Z,9.70
2023-04-07T12:39:58.474Z,9.78
2023-04-07T12:40:58.462Z,9.70
2023-04-07T12:41:58.501Z,9.67
2023-04-07T12:42:58.499Z,9.70
2023-04-07T12:43:58.436Z,9.67
2023-04-07T12:44:58.423Z,9.70
2023-04-07T12:45:58.482Z,9.72
2023-04-07T12:46:58.426Z,9.62
2023-04-07T12:47:58.530Z,9.59
2023-04-07T12:48:58.429Z,9.62
2023-04-07T12:49:58.382Z,9.73
2023-04-07T12:50:58.364Z,9.65
2023-04-07T12:51:58.347Z,9.63
2023-04-07T12:52:58.332Z,9.65
2023-04-07T12:53:58.330Z,9.70
2023-04-07T12:54:58.337Z,9.65
2023-04-07T12:55:58.328Z,9.63
2023-04-07T12:56:58.286Z,9.66
2023-04-07T12:57:58.296Z,9.60
2023-04-07T12:58:58.264Z,9.63
2023-04-07T12:59:58.268Z,9.60
2023-04-07T13:00:58.356Z,9.70
2023-04-07T13:01:58.353Z,9.63
2023-04-07T13:02:58.404Z,9.73
2023-04-07T13:03:58.276Z,9.57
2023-04-07T13:04:58.223Z,9.65
2023-04-07T13:05:58.225Z,9.63
2023-04-07T13:06:58.215Z,9.62
2023-04-07T13:07:58.207Z,9.59
2023-04-07T13:08:58.148Z,9.62
2023-04-07T13:09:58.144Z,9.57
2023-04-07T13:10:58.148Z,9.62
2023-04-07T13:11:58.117Z,9.70
2023-04-07T13:12:58.137Z,9.63
2023-04-07T13:14:00.579Z,9.69
2023-04-07T13:15:00.404Z,9.65
2023-04-07T13:15:58.077Z,9.63
2023-04-07T13:16:58.109Z,9.59
2023-04-07T13:17:58.101Z,9.59